Cincinnati, Ohio
Traffic Map
Current Weather Conditions
Cincinnati, Ohio
Clear Haze
Clear
66°
Feels Like: 66°
Wind Chill: 66° Ceiling: Unl
Heat Index: 66° Visibility: 5mi
Dew Point: 66° Wind: 0mph
Humidity: 100% Direction: ° ()
Pressure: 30.08in Gusts: 0mph
Raw Report DataKLUK 050710Z AUTO 00000KT 5SM R21L/2200VP6000FT BR CLR 19/19 A3008 RMK AO2 T01890189 $
Traffic Incident Summary
Active as of:
Severity:
Category:
InformationThere was an issue retrieving the traffic information for this location. Please try a different location or try again shortly.
Advertisements
Track Severe Weather on mobile